Time;durP1;ratioP1;P1;durP2;ratioP2;P2;SDS_P1;SDS_P2;PMS_P1;PMS_P2;Temp;Humidity;BMP_temperature;BMP_pressure;BME280_temperature;BME280_humidity;BME280_pressure;Samples;Min_cycle;Max_cycle;Signal;HPM_P1;HPM_P2
2023/09/18 00:00:59;;;;;;;;;13.00;10.40;;;;;19.97;70.31;99073.41;5093382;28;8829;-59
2023/09/18 00:03:27;;;;;;;;;10.00;8.00;;;;;19.95;70.35;99070.06;5092547;28;8838;-58
2023/09/18 00:05:55;;;;;;;;;11.00;11.00;;;;;19.93;70.41;99063.19;5092548;28;8822;-60
2023/09/18 00:08:23;;;;;;;;;10.00;10.00;;;;;19.91;70.38;99063.41;5092425;28;8834;-60
2023/09/18 00:10:50;;;;;;;;;5.40;5.40;;;;;19.89;70.17;99049.25;5091070;28;9515;-60
2023/09/18 00:13:18;;;;;;;;;11.80;10.80;;;;;19.86;70.17;99046.97;5091705;28;9511;-60
2023/09/18 00:15:48;;;;;;;;;9.60;8.00;;;;;19.83;70.10;99046.53;5095943;28;8846;-60
2023/09/18 00:18:16;;;;;;;;;11.80;11.80;;;;;19.78;70.39;99044.44;5096295;28;9705;-58
2023/09/18 00:20:48;;;;;;;;;10.60;10.60;;;;;19.73;70.89;99043.38;5096560;28;8911;-60
2023/09/18 00:23:16;;;;;;;;;12.20;11.80;;;;;19.69;70.81;99029.44;5096229;28;8834;-57
2023/09/18 00:25:43;;;;;;;;;11.00;10.00;;;;;19.64;70.50;99023.81;5095935;28;8830;-60
2023/09/18 00:28:11;;;;;;;;;12.40;10.80;;;;;19.62;70.32;99022.34;5095433;28;8836;-60
2023/09/18 00:30:39;;;;;;;;;8.40;8.40;;;;;19.59;71.22;99020.91;5093785;28;8832;-57
2023/09/18 00:33:07;;;;;;;;;11.40;11.20;;;;;19.57;70.88;99017.53;5095810;28;8860;-58
2023/09/18 00:35:35;;;;;;;;;11.00;9.60;;;;;19.54;71.28;99019.81;5096462;28;8814;-59
2023/09/18 00:38:03;;;;;;;;;9.40;9.40;;;;;19.51;71.08;99015.63;5096691;28;8826;-60
2023/09/18 00:40:31;;;;;;;;;9.20;8.20;;;;;19.48;71.21;99013.34;5096258;28;8923;-59
2023/09/18 00:42:59;;;;;;;;;11.60;11.20;;;;;19.46;71.13;99001.06;5096559;28;8830;-60
2023/09/18 00:45:27;;;;;;;;;11.40;10.00;;;;;19.43;71.16;98996.91;5096192;28;8834;-58
2023/09/18 00:47:55;;;;;;;;;6.40;5.00;;;;;19.42;71.23;98995.25;5096279;28;8840;-58
2023/09/18 00:50:22;;;;;;;;;7.40;7.40;;;;;19.39;71.48;98984.84;5096182;28;9625;-60
2023/09/18 00:52:50;;;;;;;;;10.80;10.00;;;;;19.38;70.97;98977.78;5096256;28;8857;-60
2023/09/18 00:55:18;;;;;;;;;13.60;11.00;;;;;19.36;71.61;98977.13;5096005;28;8846;-57
2023/09/18 00:57:45;;;;;;;;;11.60;10.00;;;;;19.35;71.10;98972.78;5095355;28;8850;-60
2023/09/18 01:00:17;;;;;;;;;13.80;10.60;;;;;19.35;71.23;98969.25;5094655;28;8818;-60
2023/09/18 01:02:45;;;;;;;;;12.00;10.00;;;;;19.33;71.40;98964.03;5096462;28;8842;-60
2023/09/18 01:05:16;;;;;;;;;10.20;10.20;;;;;19.30;71.57;98950.97;5095776;28;8903;-60
2023/09/18 01:07:44;;;;;;;;;12.80;10.00;;;;;19.27;71.57;98945.94;5096173;28;8944;-59
2023/09/18 01:10:15;;;;;;;;;9.40;7.20;;;;;19.25;71.70;98950.72;5096364;28;8826;-60
2023/09/18 01:12:43;;;;;;;;;10.00;9.00;;;;;19.23;71.03;98955.50;5094958;28;8850;-59
2023/09/18 01:15:11;;;;;;;;;16.40;14.80;;;;;19.23;71.81;98957.34;5095295;28;8826;-58
2023/09/18 01:17:40;;;;;;;;;12.00;10.00;;;;;19.21;71.15;98949.44;5095541;28;8865;-58
2023/09/18 01:20:08;;;;;;;;;10.80;9.60;;;;;19.19;71.24;98938.03;5095016;28;8836;-58
2023/09/18 01:22:35;;;;;;;;;12.60;10.00;;;;;19.17;71.66;98929.25;5095356;28;8842;-60
2023/09/18 01:25:04;;;;;;;;;11.40;10.40;;;;;19.17;71.70;98929.25;5094690;28;8856;-58
2023/09/18 01:27:31;;;;;;;;;10.00;10.00;;;;;19.16;71.74;98924.91;5095736;28;8830;-60
2023/09/18 01:29:59;;;;;;;;;10.80;9.80;;;;;19.15;71.35;98922.41;5094264;28;8825;-58
2023/09/18 01:32:27;;;;;;;;;12.40;11.20;;;;;19.15;71.53;98928.63;5094986;28;8857;-58
2023/09/18 01:34:55;;;;;;;;;11.00;11.00;;;;;19.15;71.31;98936.75;5095154;28;9776;-58
2023/09/18 01:37:23;;;;;;;;;10.00;10.00;;;;;19.16;71.60;98930.31;5094554;28;8841;-58
2023/09/18 01:39:50;;;;;;;;;7.20;7.00;;;;;19.19;71.51;98931.78;5094881;28;8826;-60
2023/09/18 01:42:18;;;;;;;;;9.00;7.00;;;;;19.23;71.24;98930.34;5095573;28;8822;-57
2023/09/18 01:44:45;;;;;;;;;8.40;8.00;;;;;19.27;70.81;98921.66;5094688;28;8853;-58
2023/09/18 01:47:13;;;;;;;;;6.00;6.00;;;;;19.34;71.17;98922.50;5094370;28;8826;-58
2023/09/18 01:49:40;;;;;;;;;9.00;7.20;;;;;19.40;70.81;98916.31;5095215;28;8838;-57
2023/09/18 01:52:08;;;;;;;;;10.00;9.60;;;;;19.46;70.94;98915.50;5094966;28;8826;-58
2023/09/18 01:54:35;;;;;;;;;8.80;7.20;;;;;19.50;70.48;98911.34;5095041;28;8868;-58
2023/09/18 01:57:03;;;;;;;;;9.40;9.40;;;;;19.54;70.64;98907.22;5094976;28;8876;-58
2023/09/18 01:59:31;;;;;;;;;10.20;9.60;;;;;19.57;70.89;98909.47;5095076;28;9523;-59
2023/09/18 02:01:59;;;;;;;;;7.00;7.00;;;;;19.61;70.45;98902.66;5094686;28;8841;-57
2023/09/18 02:04:27;;;;;;;;;11.80;9.20;;;;;19.65;70.50;98898.50;5094814;28;8833;-60
2023/09/18 02:07:15;;;;;;;;;8.00;7.60;;;;;19.70;70.56;98901.41;5095020;28;9515;-58
2023/09/18 02:09:43;;;;;;;;;8.60;8.20;;;;;19.77;70.51;98882.50;5094789;28;8837;-58
2023/09/18 02:12:16;;;;;;;;;7.00;7.00;;;;;19.86;70.05;98887.50;5094750;28;8830;-59
2023/09/18 02:14:44;;;;;;;;;10.00;9.80;;;;;19.97;69.95;98877.97;5095296;28;8817;-58
2023/09/18 02:17:12;;;;;;;;;7.00;6.20;;;;;20.10;69.47;98872.59;5094980;28;8837;-58
2023/09/18 02:19:39;;;;;;;;;10.60;8.80;;;;;20.23;69.27;98877.97;5094669;28;8841;-58
2023/09/18 02:22:07;;;;;;;;;4.20;4.00;;;;;20.38;69.03;98874.03;5094785;28;8912;-57
2023/09/18 02:24:35;;;;;;;;;9.60;9.60;;;;;20.58;68.33;98865.88;5094081;28;9774;-58
2023/09/18 02:27:02;;;;;;;;;4.00;4.00;;;;;20.73;68.41;98853.75;5094132;28;8860;-58
2023/09/18 02:29:30;;;;;;;;;7.00;6.60;;;;;20.87;68.05;98852.72;5093224;28;8844;-58
2023/09/18 02:31:58;;;;;;;;;7.40;7.20;;;;;20.98;67.93;98846.63;5094084;28;8844;-58
2023/09/18 02:34:26;;;;;;;;;7.80;7.80;;;;;21.06;67.34;98847.22;5094575;28;8948;-58
2023/09/18 02:36:54;;;;;;;;;1.80;1.20;;;;;21.13;67.30;98834.47;5093823;28;8818;-58
2023/09/18 02:39:21;;;;;;;;;7.60;6.20;;;;;21.20;67.48;98826.31;5093630;28;8830;-58
2023/09/18 02:41:49;;;;;;;;;5.40;5.00;;;;;21.26;67.00;98817.31;5094203;28;8841;-59
2023/09/18 02:44:17;;;;;;;;;1.00;1.00;;;;;21.30;67.21;98815.81;5093849;28;9881;-58
2023/09/18 02:46:44;;;;;;;;;7.20;7.00;;;;;21.34;67.40;98806.22;5094849;28;8850;-59
2023/09/18 02:49:12;;;;;;;;;7.20;5.40;;;;;21.39;67.08;98796.38;5093718;28;8833;-59
2023/09/18 02:51:40;;;;;;;;;8.60;7.00;;;;;21.44;66.82;98801.16;5093654;28;8850;-58
2023/09/18 02:54:07;;;;;;;;;7.60;6.00;;;;;21.47;67.13;98795.28;5093938;28;9281;-57
2023/09/18 02:56:35;;;;;;;;;7.60;7.60;;;;;21.50;66.73;98795.66;5093880;28;8825;-58
2023/09/18 02:59:03;;;;;;;;;9.00;9.00;;;;;21.53;66.84;98802.53;5093603;28;8976;-58
2023/09/18 03:01:31;;;;;;;;;7.60;7.60;;;;;21.55;66.89;98789.63;5094224;28;8879;-57
2023/09/18 03:03:58;;;;;;;;;8.80;8.80;;;;;21.54;66.63;98786.06;5094150;28;8879;-58
2023/09/18 03:06:26;;;;;;;;;8.60;8.00;;;;;21.55;66.81;98779.59;5093969;28;8863;-58
2023/09/18 03:08:54;;;;;;;;;7.00;7.00;;;;;21.56;66.58;98792.09;5094239;28;8837;-58
2023/09/18 03:11:21;;;;;;;;;2.80;2.80;;;;;21.60;67.06;98778.94;5093815;28;9512;-58
2023/09/18 03:13:50;;;;;;;;;7.80;7.20;;;;;21.64;66.86;98763.91;5094100;28;8834;-61
2023/09/18 03:16:17;;;;;;;;;7.80;7.80;;;;;21.72;66.61;98766.38;5093469;28;9082;-60
2023/09/18 03:18:45;;;;;;;;;5.00;4.80;;;;;21.87;66.61;98764.16;5093844;28;8890;-58
2023/09/18 03:21:13;;;;;;;;;8.00;8.00;;;;;21.99;66.29;98748.78;5093332;28;8818;-60
2023/09/18 03:23:40;;;;;;;;;6.00;5.00;;;;;22.12;65.52;98744.09;5093865;28;8873;-58
2023/09/18 03:26:08;;;;;;;;;7.00;5.00;;;;;22.29;65.11;98726.16;5093463;28;8923;-58
2023/09/18 03:28:35;;;;;;;;;8.40;8.00;;;;;22.46;65.07;98721.81;5093208;28;8814;-59
2023/09/18 03:31:04;;;;;;;;;8.80;7.80;;;;;22.54;64.67;98716.06;5093849;28;9752;-58
2023/09/18 03:33:32;;;;;;;;;7.80;6.20;;;;;22.62;65.00;98720.38;5093522;28;8834;-59
2023/09/18 03:36:00;;;;;;;;;8.20;7.00;;;;;22.69;64.78;98726.53;5093365;28;8848;-58
2023/09/18 03:38:29;;;;;;;;;4.00;4.00;;;;;22.75;63.94;98723.72;5093231;28;8846;-58
2023/09/18 03:40:57;;;;;;;;;5.20;4.40;;;;;22.83;63.99;98722.59;5093921;28;8868;-58
2023/09/18 03:43:25;;;;;;;;;4.60;4.00;;;;;22.88;64.08;98723.56;5093747;28;8834;-58
2023/09/18 03:45:52;;;;;;;;;6.00;6.00;;;;;22.90;63.87;98713.28;5094359;28;8798;-58
2023/09/18 03:48:20;;;;;;;;;4.60;4.60;;;;;22.96;64.16;98706.09;5093291;28;8948;-59
2023/09/18 03:50:47;;;;;;;;;5.80;5.00;;;;;23.00;63.90;98696.44;5096819;28;8826;-58
2023/09/18 03:53:15;;;;;;;;;4.00;4.00;;;;;23.02;63.61;98687.00;5097565;28;8838;-59
2023/09/18 03:55:43;;;;;;;;;4.40;4.40;;;;;23.04;63.57;98684.03;5097173;28;8826;-58
2023/09/18 03:58:11;;;;;;;;;4.40;4.40;;;;;23.03;63.98;98691.38;5096921;28;8862;-60
2023/09/18 04:00:38;;;;;;;;;5.20;4.00;;;;;23.02;63.78;98689.72;5096943;28;8865;-60
2023/09/18 04:03:06;;;;;;;;;4.60;4.00;;;;;23.00;64.14;98689.09;5097224;28;9569;-59
2023/09/18 04:05:34;;;;;;;;;8.00;5.00;;;;;22.95;64.28;98694.44;5096746;28;8853;-59
2023/09/18 04:08:02;;;;;;;;;4.20;4.20;;;;;22.92;64.23;98675.06;5096423;28;8826;-60
2023/09/18 04:10:30;;;;;;;;;3.60;3.60;;;;;22.88;64.34;98660.25;5097389;28;8892;-60
2023/09/18 04:12:57;;;;;;;;;5.00;5.00;;;;;22.83;63.90;98650.09;5096647;28;8830;-60
2023/09/18 04:15:25;;;;;;;;;5.60;5.60;;;;;22.79;64.32;98657.06;5096195;28;8834;-60
2023/09/18 04:17:53;;;;;;;;;5.40;5.00;;;;;22.77;64.21;98647.50;5096605;28;8845;-60
2023/09/18 04:20:20;;;;;;;;;5.20;5.20;;;;;22.74;64.68;98664.22;5096791;28;8829;-59
2023/09/18 04:22:50;;;;;;;;;4.40;4.40;;;;;22.70;64.90;98665.75;5096267;28;8829;-61
2023/09/18 04:25:18;;;;;;;;;4.20;4.20;;;;;22.68;64.05;98665.97;5096333;28;8814;-60
2023/09/18 04:27:49;;;;;;;;;5.00;5.00;;;;;22.67;64.36;98663.47;5096897;28;9476;-57
2023/09/18 04:30:19;;;;;;;;;4.40;4.20;;;;;22.66;64.25;98657.25;5096318;28;9542;-59
2023/09/18 04:32:47;;;;;;;;;4.60;4.60;;;;;22.66;64.79;98662.69;5096001;28;8837;-60
2023/09/18 04:35:15;;;;;;;;;4.40;4.40;;;;;22.67;64.51;98663.47;5096760;28;8830;-59
2023/09/18 04:37:43;;;;;;;;;4.00;4.00;;;;;22.68;64.51;98676.03;5095599;28;8810;-60
2023/09/18 04:40:11;;;;;;;;;5.80;5.00;;;;;22.69;64.60;98672.25;5095721;28;8853;-59
2023/09/18 04:42:39;;;;;;;;;3.20;2.80;;;;;22.69;64.66;98683.09;5095661;28;9705;-58
2023/09/18 04:45:07;;;;;;;;;4.00;4.00;;;;;22.69;64.71;98672.25;5095387;28;8825;-59
2023/09/18 04:47:35;;;;;;;;;4.20;4.00;;;;;22.66;64.12;98664.53;5095337;28;8915;-58
2023/09/18 04:50:09;;;;;;;;;4.00;2.00;;;;;22.63;64.61;98656.88;5095362;28;8972;-58
2023/09/18 04:52:40;;;;;;;;;5.00;4.20;;;;;22.61;64.78;98659.00;5095505;28;8848;-60
2023/09/18 04:55:08;;;;;;;;;4.00;3.20;;;;;22.59;64.96;98645.66;5095573;28;8837;-59
2023/09/18 04:57:36;;;;;;;;;2.00;2.00;;;;;22.58;64.46;98654.84;5095901;28;8825;-60
2023/09/18 05:00:07;;;;;;;;;5.40;5.00;;;;;22.54;64.55;98659.06;5095011;28;8837;-60
2023/09/18 05:02:44;;;;;;;;;4.00;4.00;;;;;22.49;65.25;98649.97;5095699;28;8888;-59
2023/09/18 05:05:13;;;;;;;;;2.00;1.00;;;;;22.47;64.77;98650.19;5095809;28;8968;-61
2023/09/18 05:07:42;;;;;;;;;4.00;4.00;;;;;22.48;65.34;98656.47;5095071;28;8806;-60
2023/09/18 05:10:10;;;;;;;;;2.40;2.00;;;;;22.46;65.20;98650.44;5084604;28;8807;-61
2023/09/18 05:12:37;;;;;;;;;3.60;2.00;;;;;22.45;64.98;98648.75;5094905;28;8968;-59
2023/09/18 05:15:05;;;;;;;;;4.00;4.00;;;;;22.41;65.37;98653.84;5094931;28;9554;-59
2023/09/18 05:17:34;;;;;;;;;4.60;4.20;;;;;22.40;65.31;98643.16;5093533;28;9527;-59
2023/09/18 05:20:04;;;;;;;;;3.60;3.60;;;;;22.38;64.90;98640.69;5092710;28;8842;-59
2023/09/18 05:22:33;;;;;;;;;4.00;4.00;;;;;22.37;65.59;98643.63;5093066;28;8944;-59
2023/09/18 05:25:01;;;;;;;;;4.60;4.00;;;;;22.34;64.97;98646.78;5092682;28;8829;-59
2023/09/18 05:27:28;;;;;;;;;3.60;3.60;;;;;22.31;65.74;98649.97;5092389;28;8826;-58
2023/09/18 05:29:56;;;;;;;;;2.00;2.00;;;;;22.28;65.29;98655.84;5093119;28;8840;-60
2023/09/18 05:32:24;;;;;;;;;2.80;2.00;;;;;22.24;65.48;98660.06;5093606;28;8844;-59
2023/09/18 05:34:52;;;;;;;;;2.80;2.00;;;;;22.22;65.70;98681.16;5093845;28;8866;-59
2023/09/18 05:37:20;;;;;;;;;5.00;5.00;;;;;22.20;66.05;98672.41;5095569;28;8891;-60
2023/09/18 05:39:48;;;;;;;;;2.00;2.00;;;;;22.18;65.97;98671.81;5096044;28;8818;-59
2023/09/18 05:42:16;;;;;;;;;1.00;1.00;;;;;22.15;66.08;98685.84;5094910;28;9495;-59
2023/09/18 05:44:44;;;;;;;;;2.80;2.80;;;;;22.12;65.75;98686.28;5094895;28;8852;-59
2023/09/18 05:47:12;;;;;;;;;2.00;2.00;;;;;22.08;65.94;98685.91;5094734;28;8853;-59
2023/09/18 05:49:40;;;;;;;;;1.00;1.00;;;;;22.04;66.03;98700.16;5094517;28;8825;-60
2023/09/18 05:52:08;;;;;;;;;4.80;4.20;;;;;21.99;66.27;98703.53;5094263;28;8825;-59
2023/09/18 05:54:36;;;;;;;;;3.60;3.20;;;;;21.97;66.67;98707.53;5093492;28;8830;-59
2023/09/18 05:57:04;;;;;;;;;4.00;4.00;;;;;21.96;66.84;98722.97;5091979;28;8838;-60
2023/09/18 05:59:31;;;;;;;;;2.80;2.80;;;;;21.94;66.50;98716.94;5089651;28;8849;-59
2023/09/18 06:01:59;;;;;;;;;3.60;3.20;;;;;21.94;66.44;98732.38;5089718;28;8908;-59
2023/09/18 06:04:27;;;;;;;;;2.80;2.00;;;;;21.93;66.37;98736.16;5090273;28;8845;-60
2023/09/18 06:06:56;;;;;;;;;4.60;4.00;;;;;21.92;66.73;98737.19;5089590;28;9204;-59
2023/09/18 06:09:24;;;;;;;;;4.60;2.80;;;;;21.89;66.89;98722.22;5089253;28;8852;-59
2023/09/18 06:11:52;;;;;;;;;1.80;1.80;;;;;21.88;67.09;98725.13;5087955;28;8899;-60
2023/09/18 06:14:19;;;;;;;;;4.00;2.40;;;;;21.87;66.55;98727.00;5090156;28;8837;-61
2023/09/18 06:16:47;;;;;;;;;4.00;2.80;;;;;21.87;67.01;98715.34;5090533;28;8964;-59
2023/09/18 06:19:15;;;;;;;;;3.60;2.00;;;;;21.87;67.11;98720.78;5090383;28;8842;-59
2023/09/18 06:21:45;;;;;;;;;2.00;1.00;;;;;21.85;67.00;98717.47;5091142;28;8837;-60
2023/09/18 06:24:13;;;;;;;;;3.20;3.20;;;;;21.84;67.17;98729.34;5091963;28;8880;-59
2023/09/18 06:26:41;;;;;;;;;3.60;2.00;;;;;21.82;66.96;98721.44;5092989;28;8854;-59
2023/09/18 06:29:09;;;;;;;;;2.00;1.40;;;;;21.80;67.22;98730.84;5092295;28;8861;-59
2023/09/18 06:31:37;;;;;;;;;5.00;3.20;;;;;21.78;67.32;98727.53;5092856;28;8833;-59
2023/09/18 06:34:05;;;;;;;;;5.00;4.00;;;;;21.76;67.47;98744.03;5091704;28;8852;-59
2023/09/18 06:36:32;;;;;;;;;4.60;4.00;;;;;21.76;67.33;98754.84;5092367;28;8822;-61
2023/09/18 06:39:00;;;;;;;;;2.80;2.80;;;;;21.76;67.57;98760.28;5091191;28;8837;-59
2023/09/18 06:41:28;;;;;;;;;3.60;3.60;;;;;21.75;67.18;98747.78;5091533;28;8876;-59
2023/09/18 06:43:57;;;;;;;;;1.80;1.80;;;;;21.76;67.28;98756.72;5091223;28;9183;-60
2023/09/18 06:46:24;;;;;;;;;2.00;2.00;;;;;21.76;67.57;98762.16;5091615;28;8842;-59
2023/09/18 06:48:52;;;;;;;;;2.00;1.80;;;;;21.78;67.44;98765.50;5091524;28;8834;-60
2023/09/18 06:51:21;;;;;;;;;1.80;1.80;;;;;21.74;67.62;98751.56;5090877;28;8852;-59
2023/09/18 06:54:07;;;;;;;;;1.40;1.40;;;;;21.74;67.52;98748.00;5089174;28;8854;-59
2023/09/18 06:56:34;;;;;;;;;4.00;4.00;;;;;21.71;68.01;98754.69;5089497;28;8830;-58
2023/09/18 06:59:02;;;;;;;;;1.80;1.80;;;;;21.70;68.10;98761.16;5089079;28;8834;-59
2023/09/18 07:01:31;;;;;;;;;4.20;2.40;;;;;21.71;67.91;98784.50;5089547;28;8964;-59
2023/09/18 07:03:59;;;;;;;;;7.60;5.00;;;;;21.74;67.61;98777.81;5091614;28;8853;-61
2023/09/18 07:06:28;;;;;;;;;1.00;1.00;;;;;21.75;68.12;98787.59;5091497;28;8841;-59
2023/09/18 07:08:56;;;;;;;;;2.40;2.40;;;;;21.76;67.61;98789.25;5090821;28;8830;-59
2023/09/18 07:11:24;;;;;;;;;2.00;2.00;;;;;21.80;67.74;98785.88;5089243;28;8838;-60
2023/09/18 07:13:52;;;;;;;;;2.00;1.60;;;;;21.83;67.78;98779.19;5089770;28;9687;-61
2023/09/18 07:16:20;;;;;;;;;2.00;2.00;;;;;21.84;67.85;98786.25;5090842;28;8830;-58
2023/09/18 07:18:48;;;;;;;;;2.00;2.00;;;;;21.86;68.04;98789.63;5091136;28;8842;-59
2023/09/18 07:21:16;;;;;;;;;1.40;1.00;;;;;21.86;68.04;98797.75;5091534;28;8844;-61
2023/09/18 07:23:45;;;;;;;;;2.00;2.00;;;;;21.88;67.49;98791.03;5091069;28;9601;-61
2023/09/18 07:26:13;;;;;;;;;4.00;4.00;;;;;21.89;67.65;98784.56;5091282;28;8834;-61
2023/09/18 07:28:42;;;;;;;;;2.00;2.00;;;;;21.92;67.26;98794.13;5090954;28;8869;-59
2023/09/18 07:31:12;;;;;;;;;2.00;2.00;;;;;21.93;67.53;98806.66;5091644;28;8948;-60
2023/09/18 07:33:40;;;;;;;;;2.00;2.00;;;;;21.94;67.41;98797.47;5091119;28;8822;-59
2023/09/18 07:36:09;;;;;;;;;3.20;3.20;;;;;21.95;67.49;98793.69;5091660;28;8830;-59
2023/09/18 07:38:37;;;;;;;;;2.40;2.00;;;;;21.95;67.26;98777.44;5091701;28;8872;-59
2023/09/18 07:41:05;;;;;;;;;2.00;1.20;;;;;21.94;67.75;98775.78;5090905;28;8837;-58
2023/09/18 07:43:33;;;;;;;;;2.40;2.00;;;;;21.92;67.61;98775.13;5091163;28;8830;-59
2023/09/18 07:46:01;;;;;;;;;2.40;1.40;;;;;21.90;67.84;98788.94;5090187;28;8986;-59
2023/09/18 07:48:29;;;;;;;;;5.00;4.00;;;;;21.88;67.65;98791.03;5090163;28;8838;-60
2023/09/18 07:50:57;;;;;;;;;1.00;1.00;;;;;21.87;67.69;98807.53;5091879;28;8818;-59
2023/09/18 07:53:25;;;;;;;;;2.00;2.00;;;;;21.87;67.40;98813.78;5093195;28;8848;-60
2023/09/18 07:55:53;;;;;;;;;1.00;1.00;;;;;21.87;68.13;98813.78;5093508;28;8830;-59
2023/09/18 07:58:21;;;;;;;;;2.40;2.40;;;;;21.89;67.90;98797.28;5093302;28;9553;-59
2023/09/18 08:00:51;;;;;;;;;2.80;2.00;;;;;21.92;67.67;98804.97;5092672;28;8844;-59
2023/09/18 08:03:19;;;;;;;;;1.20;1.00;;;;;21.96;67.54;98812.47;5092413;28;8821;-59
2023/09/18 08:05:48;;;;;;;;;0.60;0.60;;;;;22.00;67.93;98797.41;5092381;28;8838;-59
2023/09/18 08:08:16;;;;;;;;;2.00;1.20;;;;;22.04;67.71;98795.06;5091863;28;8868;-61
2023/09/18 08:10:44;;;;;;;;;2.00;2.00;;;;;22.07;67.22;98814.44;5092392;28;8833;-61
2023/09/18 08:13:12;;;;;;;;;2.00;2.00;;;;;22.08;67.61;98821.53;5090859;28;8966;-59
2023/09/18 08:15:40;;;;;;;;;2.00;2.00;;;;;22.09;67.20;98830.50;5088766;28;8885;-59
2023/09/18 08:18:08;;;;;;;;;2.00;2.00;;;;;22.13;67.49;98829.81;5087493;28;8976;-59
2023/09/18 08:20:36;;;;;;;;;1.00;1.00;;;;;22.14;67.12;98836.91;5089062;28;8826;-59
2023/09/18 08:23:06;;;;;;;;;3.60;2.40;;;;;22.14;67.23;98833.34;5089127;28;8837;-59
2023/09/18 08:25:33;;;;;;;;;0.00;0.00;;;;;22.15;67.31;98840.47;5089630;28;8967;-59
2023/09/18 08:28:01;;;;;;;;;2.00;2.00;;;;;22.16;67.29;98823.13;5091192;28;8846;-59
2023/09/18 08:30:29;;;;;;;;;2.80;2.40;;;;;22.24;66.95;98823.66;5091312;28;8822;-59
2023/09/18 08:32:57;;;;;;;;;2.00;2.00;;;;;22.32;67.08;98833.41;5091656;28;8847;-61
2023/09/18 08:35:28;;;;;;;;;4.00;4.00;;;;;22.36;66.87;98831.88;5091806;28;8846;-59
2023/09/18 08:37:56;;;;;;;;;2.40;2.00;;;;;22.39;66.72;98831.47;5095141;28;8844;-59
2023/09/18 08:40:25;;;;;;;;;4.40;3.20;;;;;22.44;66.54;98839.78;5095505;28;8844;-59
2023/09/18 08:42:53;;;;;;;;;2.00;2.00;;;;;22.43;66.59;98844.38;5096452;28;8830;-59
2023/09/18 08:45:21;;;;;;;;;2.00;2.00;;;;;22.44;66.51;98834.34;5095843;28;8822;-59
2023/09/18 08:47:49;;;;;;;;;1.00;1.00;;;;;22.41;66.58;98837.50;5095764;28;9266;-58
2023/09/18 08:50:17;;;;;;;;;4.60;4.00;;;;;22.39;67.14;98840.41;5095508;28;8830;-61
2023/09/18 08:52:45;;;;;;;;;2.00;2.00;;;;;22.40;66.68;98831.22;5094121;28;8830;-59
2023/09/18 08:55:13;;;;;;;;;3.60;3.60;;;;;22.41;66.54;98840.19;5093895;28;9597;-59
2023/09/18 08:57:41;;;;;;;;;1.20;1.20;;;;;22.43;66.60;98840.81;5093620;28;8907;-59
2023/09/18 09:00:11;;;;;;;;;4.20;4.20;;;;;22.47;66.79;98844.78;5095167;28;8907;-61
2023/09/18 09:02:39;;;;;;;;;2.00;2.00;;;;;22.52;66.60;98855.75;5095169;28;8825;-59
2023/09/18 09:05:07;;;;;;;;;4.20;3.20;;;;;22.55;66.33;98853.44;5095697;28;8834;-61
2023/09/18 09:07:35;;;;;;;;;2.80;2.80;;;;;22.58;66.52;98861.16;5094760;28;8834;-60
2023/09/18 09:10:03;;;;;;;;;2.40;2.40;;;;;22.60;66.03;98848.16;5094672;28;8906;-61
2023/09/18 09:12:31;;;;;;;;;4.40;4.00;;;;;22.60;66.45;98839.19;5095317;28;8830;-60
2023/09/18 09:14:58;;;;;;;;;4.00;4.00;;;;;22.61;66.32;98840.88;5094437;28;8918;-60
2023/09/18 09:17:26;;;;;;;;;2.80;2.00;;;;;22.63;66.33;98847.69;5094008;28;8853;-61
2023/09/18 09:19:54;;;;;;;;;1.60;1.60;;;;;22.68;66.05;98852.50;5094820;28;8826;-60
2023/09/18 09:22:22;;;;;;;;;0.60;0.60;;;;;22.79;65.60;98839.00;5094195;28;8837;-58
2023/09/18 09:24:51;;;;;;;;;2.80;2.40;;;;;22.88;65.86;98851.19;5094280;28;8899;-58
2023/09/18 09:27:18;;;;;;;;;2.00;2.00;;;;;22.91;65.78;98828.19;5094375;28;8825;-58
2023/09/18 09:29:46;;;;;;;;;2.80;2.00;;;;;22.94;65.42;98830.44;5093658;28;9008;-60
2023/09/18 09:32:14;;;;;;;;;2.00;2.00;;;;;22.96;65.40;98833.75;5094035;28;8972;-60
2023/09/18 09:34:42;;;;;;;;;3.60;3.60;;;;;23.08;64.62;98848.25;5093945;28;8854;-58
2023/09/18 09:37:11;;;;;;;;;3.20;3.20;;;;;23.23;64.76;98826.97;5093650;28;8910;-60
2023/09/18 09:39:38;;;;;;;;;2.80;2.00;;;;;23.47;64.43;98845.03;5094377;28;8952;-60
2023/09/18 09:42:06;;;;;;;;;4.00;4.00;;;;;23.74;63.62;98838.16;5094299;28;8834;-59
2023/09/18 09:44:34;;;;;;;;;4.20;4.00;;;;;23.92;62.73;98819.03;5095079;28;8948;-59
2023/09/18 09:47:03;;;;;;;;;2.00;2.00;;;;;24.06;62.99;98843.06;5094254;28;8858;-58
2023/09/18 09:49:33;;;;;;;;;2.00;2.00;;;;;24.10;62.74;98857.03;5094977;28;8898;-59
2023/09/18 09:52:01;;;;;;;;;2.00;2.00;;;;;24.17;62.45;98855.03;5093688;28;9536;-59
2023/09/18 09:54:29;;;;;;;;;2.40;2.00;;;;;24.32;61.57;98849.94;5093848;28;8868;-58
2023/09/18 09:56:57;;;;;;;;;2.00;2.00;;;;;24.56;61.97;98846.22;5093666;28;9200;-60
2023/09/18 09:59:27;;;;;;;;;4.00;4.00;;;;;24.71;61.51;98849.28;5093913;28;9176;-58
2023/09/18 10:01:55;;;;;;;;;2.00;2.00;;;;;25.02;60.80;98837.97;5092315;28;8841;-60
2023/09/18 10:04:22;;;;;;;;;2.00;2.00;;;;;25.17;60.10;98852.72;5092597;28;8906;-59
2023/09/18 10:06:51;;;;;;;;;2.00;1.20;;;;;25.37;59.71;98850.44;5093205;28;8822;-59
2023/09/18 10:09:19;;;;;;;;;1.40;1.40;;;;;25.62;58.95;98845.47;5092561;28;8836;-58
2023/09/18 10:11:46;;;;;;;;;2.00;2.00;;;;;25.70;59.00;98851.34;5093442;28;8953;-58
2023/09/18 10:14:16;;;;;;;;;2.00;2.00;;;;;25.72;58.92;98840.19;5093650;28;8822;-59
2023/09/18 10:16:44;;;;;;;;;0.00;0.00;;;;;25.51;58.84;98853.69;5093619;28;9664;-58
2023/09/18 10:19:13;;;;;;;;;0.20;0.20;;;;;25.21;59.64;98853.06;5093303;28;8853;-60
2023/09/18 10:21:41;;;;;;;;;2.00;2.00;;;;;24.97;60.48;98870.56;5093312;28;8830;-59
2023/09/18 10:24:09;;;;;;;;;1.60;1.40;;;;;24.69;60.96;98870.47;5092951;28;8838;-58
2023/09/18 10:26:38;;;;;;;;;2.80;2.60;;;;;24.46;61.09;98865.84;5093189;28;8818;-60
2023/09/18 10:29:08;;;;;;;;;1.60;1.60;;;;;24.30;61.62;98861.09;5092988;28;8906;-61
2023/09/18 10:31:37;;;;;;;;;3.40;2.60;;;;;24.22;61.94;98857.88;5092732;28;8944;-58
2023/09/18 10:34:05;;;;;;;;;1.40;1.40;;;;;24.17;61.68;98857.75;5092634;28;8968;-61
2023/09/18 10:36:32;;;;;;;;;2.20;2.00;;;;;24.10;61.80;98859.75;5092969;28;8846;-58
2023/09/18 10:39:06;;;;;;;;;2.60;2.00;;;;;24.12;61.33;98863.09;5092356;28;8830;-58
2023/09/18 10:41:34;;;;;;;;;2.00;2.00;;;;;24.22;61.24;98869.63;5092310;28;9491;-58
2023/09/18 10:44:04;;;;;;;;;2.00;2.00;;;;;24.30;60.80;98863.81;5090574;28;8833;-58
2023/09/18 10:46:32;;;;;;;;;2.60;2.00;;;;;24.35;60.86;98854.94;5091958;28;8901;-60
2023/09/18 10:49:00;;;;;;;;;2.00;2.00;;;;;24.51;60.34;98846.88;5091963;28;8842;-60
2023/09/18 10:51:30;;;;;;;;;2.00;2.00;;;;;24.70;60.02;98844.88;5092502;28;8837;-60
2023/09/18 10:53:58;;;;;;;;;2.00;2.00;;;;;24.86;59.91;98841.44;5092809;28;8822;-59
2023/09/18 10:56:26;;;;;;;;;3.80;2.00;;;;;24.94;59.58;98846.53;5090934;28;8876;-59
2023/09/18 10:58:54;;;;;;;;;1.20;1.20;;;;;25.03;58.86;98848.59;5091025;28;8988;-58
2023/09/18 11:01:22;;;;;;;;;2.20;2.20;;;;;25.15;58.86;98851.31;5090738;28;8825;-58
2023/09/18 11:03:50;;;;;;;;;2.40;2.40;;;;;25.21;58.84;98839.44;5090277;28;8822;-60
2023/09/18 11:06:21;;;;;;;;;2.00;2.00;;;;;25.37;58.55;98835.97;5090444;28;8830;-58
2023/09/18 11:08:48;;;;;;;;;3.80;3.00;;;;;25.76;57.51;98850.38;5089764;28;8894;-60
2023/09/18 11:11:16;;;;;;;;;3.00;2.60;;;;;26.39;56.50;98847.34;5091843;28;8907;-58
2023/09/18 11:13:45;;;;;;;;;2.20;2.20;;;;;26.79;55.44;98851.53;5091954;28;8826;-60
2023/09/18 11:16:12;;;;;;;;;2.00;2.00;;;;;27.03;54.74;98850.22;5091983;28;8861;-59
2023/09/18 11:18:40;;;;;;;;;2.20;2.00;;;;;27.29;53.87;98835.84;5090531;28;8898;-59
2023/09/18 11:21:08;;;;;;;;;3.00;3.00;;;;;27.45;54.01;98840.38;5090748;28;8825;-59
2023/09/18 11:23:36;;;;;;;;;1.40;1.00;;;;;27.67;53.79;98832.97;5091901;28;8845;-59
2023/09/18 11:26:04;;;;;;;;;2.60;2.00;;;;;27.97;53.07;98830.56;5090693;28;8850;-59
2023/09/18 11:28:32;;;;;;;;;2.00;2.00;;;;;28.46;51.60;98829.31;5089613;28;8968;-58
2023/09/18 11:31:02;;;;;;;;;3.00;3.00;;;;;28.98;50.40;98821.97;5090161;28;8980;-61
2023/09/18 11:33:30;;;;;;;;;2.00;2.00;;;;;29.47;49.08;98814.19;5091086;28;9617;-59
2023/09/18 11:35:58;;;;;;;;;3.00;3.00;;;;;30.03;48.24;98818.72;5091564;28;8895;-61
2023/09/18 11:38:25;;;;;;;;;3.20;3.00;;;;;30.16;48.16;98810.78;5092104;28;8842;-59
2023/09/18 11:40:53;;;;;;;;;2.00;2.00;;;;;30.43;47.31;98816.81;5092189;28;8826;-60
2023/09/18 11:43:25;;;;;;;;;2.20;2.20;;;;;30.83;46.71;98812.03;5090806;28;8826;-60